sensor_id;sensor_type;location;lat;lon;timestamp;pressure;altitude;pressure_sealevel;temperature;humidity
48530;BME280;34927;37.302;-121.982;2022-10-16T00:00:02;100453.0;;;25.42;42.23
48530;BME280;34927;37.302;-121.982;2022-10-16T00:01:09;100455.0;;;25.48;42.07
48530;BME280;34927;37.302;-121.982;2022-10-16T00:02:12;100455.0;;;25.51;41.99
48530;BME280;34927;37.302;-121.982;2022-10-16T00:03:16;100458.0;;;25.57;41.82
48530;BME280;34927;37.302;-121.982;2022-10-16T00:04:22;100457.0;;;25.69;41.61
48530;BME280;34927;37.302;-121.982;2022-10-16T00:05:26;100459.0;;;25.68;41.57
48530;BME280;34927;37.302;-121.982;2022-10-16T00:06:31;100461.0;;;25.76;41.50
48530;BME280;34927;37.302;-121.982;2022-10-16T00:07:36;100463.0;;;25.82;41.43
48530;BME280;34927;37.302;-121.982;2022-10-16T00:08:41;100461.0;;;25.87;41.26
48530;BME280;34927;37.302;-121.982;2022-10-16T00:09:46;100463.0;;;25.84;41.31
48530;BME280;34927;37.302;-121.982;2022-10-16T00:10:51;100462.0;;;25.82;41.29
48530;BME280;34927;37.302;-121.982;2022-10-16T00:11:56;100462.0;;;25.84;41.34
48530;BME280;34927;37.302;-121.982;2022-10-16T00:13:01;100462.0;;;25.83;41.30
48530;BME280;34927;37.302;-121.982;2022-10-16T00:14:11;100461.0;;;25.89;41.24
48530;BME280;34927;37.302;-121.982;2022-10-16T00:15:17;100460.0;;;25.85;41.29
48530;BME280;34927;37.302;-121.982;2022-10-16T00:16:22;100461.0;;;25.84;41.31
48530;BME280;34927;37.302;-121.982;2022-10-16T00:17:26;100461.0;;;25.86;41.27
48530;BME280;34927;37.302;-121.982;2022-10-16T00:18:32;100459.0;;;25.85;41.31
48530;BME280;34927;37.302;-121.982;2022-10-16T00:19:36;100459.0;;;25.80;41.39
48530;BME280;34927;37.302;-121.982;2022-10-16T00:20:41;100462.0;;;25.78;41.48
48530;BME280;34927;37.302;-121.982;2022-10-16T00:21:47;100465.0;;;25.78;41.40
48530;BME280;34927;37.302;-121.982;2022-10-16T00:22:52;100465.0;;;25.94;41.31
48530;BME280;34927;37.302;-121.982;2022-10-16T00:23:58;100465.0;;;25.83;41.44
48530;BME280;34927;37.302;-121.982;2022-10-16T00:25:02;100465.0;;;25.82;41.44
48530;BME280;34927;37.302;-121.982;2022-10-16T00:26:08;100464.0;;;25.70;41.67
48530;BME280;34927;37.302;-121.982;2022-10-16T00:27:11;100461.0;;;25.63;41.91
48530;BME280;34927;37.302;-121.982;2022-10-16T00:28:16;100461.0;;;25.58;42.08
48530;BME280;34927;37.302;-121.982;2022-10-16T00:29:22;100460.0;;;25.53;42.11
48530;BME280;34927;37.302;-121.982;2022-10-16T00:30:27;100460.0;;;25.54;42.20
48530;BME280;34927;37.302;-121.982;2022-10-16T00:31:31;100463.0;;;25.64;42.04
48530;BME280;34927;37.302;-121.982;2022-10-16T00:32:37;100464.0;;;25.64;42.07
48530;BME280;34927;37.302;-121.982;2022-10-16T00:33:42;100462.0;;;25.55;42.31
48530;BME280;34927;37.302;-121.982;2022-10-16T00:34:47;100463.0;;;25.46;42.48
48530;BME280;34927;37.302;-121.982;2022-10-16T00:35:51;100462.0;;;25.47;42.49
48530;BME280;34927;37.302;-121.982;2022-10-16T00:36:57;100461.0;;;25.39;42.67
48530;BME280;34927;37.302;-121.982;2022-10-16T00:38:01;100463.0;;;25.36;42.73
48530;BME280;34927;37.302;-121.982;2022-10-16T00:39:06;100462.0;;;25.38;42.69
48530;BME280;34927;37.302;-121.982;2022-10-16T00:40:11;100463.0;;;25.40;42.64
48530;BME280;34927;37.302;-121.982;2022-10-16T00:41:17;100465.0;;;25.42;42.59
48530;BME280;34927;37.302;-121.982;2022-10-16T00:42:22;100463.0;;;25.33;42.72
48530;BME280;34927;37.302;-121.982;2022-10-16T00:43:37;100468.0;;;25.29;42.88
48530;BME280;34927;37.302;-121.982;2022-10-16T00:44:45;100469.0;;;25.29;42.91
48530;BME280;34927;37.302;-121.982;2022-10-16T00:45:52;100468.0;;;25.24;42.94
48530;BME280;34927;37.302;-121.982;2022-10-16T00:46:57;100469.0;;;25.25;42.90
48530;BME280;34927;37.302;-121.982;2022-10-16T00:48:01;100472.0;;;25.25;43.00
48530;BME280;34927;37.302;-121.982;2022-10-16T00:49:09;100472.0;;;25.17;42.99
48530;BME280;34927;37.302;-121.982;2022-10-16T00:50:16;100475.0;;;25.29;42.83
48530;BME280;34927;37.302;-121.982;2022-10-16T00:51:25;100471.0;;;25.23;42.95
48530;BME280;34927;37.302;-121.982;2022-10-16T00:52:32;100473.0;;;25.26;42.78
48530;BME280;34927;37.302;-121.982;2022-10-16T00:53:37;100472.0;;;25.26;42.75
48530;BME280;34927;37.302;-121.982;2022-10-16T00:54:42;100475.0;;;25.33;42.60
48530;BME280;34927;37.302;-121.982;2022-10-16T00:55:47;100474.0;;;25.45;42.35
48530;BME280;34927;37.302;-121.982;2022-10-16T00:56:53;100474.0;;;25.48;42.25
48530;BME280;34927;37.302;-121.982;2022-10-16T00:57:57;100477.0;;;25.44;42.27
48530;BME280;34927;37.302;-121.982;2022-10-16T00:59:04;100480.0;;;25.45;42.31
48530;BME280;34927;37.302;-121.982;2022-10-16T01:00:15;100479.0;;;25.37;42.43
48530;BME280;34927;37.302;-121.982;2022-10-16T01:01:22;100479.0;;;25.40;42.39
48530;BME280;34927;37.302;-121.982;2022-10-16T01:02:26;100480.0;;;25.40;42.37
48530;BME280;34927;37.302;-121.982;2022-10-16T01:03:33;100482.0;;;25.40;42.39
48530;BME280;34927;37.302;-121.982;2022-10-16T01:04:39;100482.0;;;25.36;42.41
48530;BME280;34927;37.302;-121.982;2022-10-16T01:05:48;100484.0;;;25.32;42.42
48530;BME280;34927;37.302;-121.982;2022-10-16T01:06:59;100482.0;;;25.33;42.45
48530;BME280;34927;37.302;-121.982;2022-10-16T01:08:12;100484.0;;;25.33;42.50
48530;BME280;34927;37.302;-121.982;2022-10-16T01:09:21;100485.0;;;25.29;42.51
48530;BME280;34927;37.302;-121.982;2022-10-16T01:10:31;100484.0;;;25.29;42.48
48530;BME280;34927;37.302;-121.982;2022-10-16T01:11:43;100486.0;;;25.27;42.51
48530;BME280;34927;37.302;-121.982;2022-10-16T01:12:51;100490.0;;;25.23;42.67
48530;BME280;34927;37.302;-121.982;2022-10-16T01:14:00;100488.0;;;25.25;42.64
48530;BME280;34927;37.302;-121.982;2022-10-16T01:15:13;100493.0;;;25.21;42.58
48530;BME280;34927;37.302;-121.982;2022-10-16T01:16:28;100495.0;;;25.23;42.74
48530;BME280;34927;37.302;-121.982;2022-10-16T01:17:41;100493.0;;;25.20;42.74
48530;BME280;34927;37.302;-121.982;2022-10-16T01:18:49;100495.0;;;25.22;42.70
48530;BME280;34927;37.302;-121.982;2022-10-16T01:20:05;100496.0;;;25.23;42.71
48530;BME280;34927;37.302;-121.982;2022-10-16T01:21:15;100496.0;;;25.25;42.68
48530;BME280;34927;37.302;-121.982;2022-10-16T01:22:23;100498.0;;;25.19;42.71
48530;BME280;34927;37.302;-121.982;2022-10-16T01:23:41;100497.0;;;25.16;42.91
48530;BME280;34927;37.302;-121.982;2022-10-16T01:24:50;100502.0;;;25.20;42.79
48530;BME280;34927;37.302;-121.982;2022-10-16T01:26:10;100504.0;;;25.19;42.83
48530;BME280;34927;37.302;-121.982;2022-10-16T01:27:20;100506.0;;;25.20;42.84
48530;BME280;34927;37.302;-121.982;2022-10-16T01:28:30;100504.0;;;25.22;42.90
48530;BME280;34927;37.302;-121.982;2022-10-16T01:29:42;100509.0;;;25.16;42.92
48530;BME280;34927;37.302;-121.982;2022-10-16T01:30:47;100509.0;;;25.17;42.95
48530;BME280;34927;37.302;-121.982;2022-10-16T01:31:57;100508.0;;;25.17;42.99
48530;BME280;34927;37.302;-121.982;2022-10-16T01:33:04;100507.0;;;25.11;43.08
48530;BME280;34927;37.302;-121.982;2022-10-16T01:34:15;100506.0;;;25.07;43.15
48530;BME280;34927;37.302;-121.982;2022-10-16T01:35:25;100508.0;;;25.12;43.11
48530;BME280;34927;37.302;-121.982;2022-10-16T01:36:37;100505.0;;;25.04;43.32
48530;BME280;34927;37.302;-121.982;2022-10-16T01:37:44;100504.0;;;25.03;43.28
48530;BME280;34927;37.302;-121.982;2022-10-16T01:38:54;100507.0;;;25.06;43.26
48530;BME280;34927;37.302;-121.982;2022-10-16T01:40:05;100510.0;;;25.03;43.33
48530;BME280;34927;37.302;-121.982;2022-10-16T01:41:17;100506.0;;;25.11;43.22
48530;BME280;34927;37.302;-121.982;2022-10-16T01:42:24;100511.0;;;25.08;43.27
48530;BME280;34927;37.302;-121.982;2022-10-16T01:43:34;100513.0;;;25.02;43.37
48530;BME280;34927;37.302;-121.982;2022-10-16T01:44:42;100512.0;;;25.02;43.33
48530;BME280;34927;37.302;-121.982;2022-10-16T01:45:47;100513.0;;;25.02;43.42
48530;BME280;34927;37.302;-121.982;2022-10-16T01:46:54;100513.0;;;25.01;43.38
48530;BME280;34927;37.302;-121.982;2022-10-16T01:47:58;100510.0;;;25.06;43.32
48530;BME280;34927;37.302;-121.982;2022-10-16T01:49:08;100514.0;;;25.09;43.29
48530;BME280;34927;37.302;-121.982;2022-10-16T01:50:18;100514.0;;;25.06;43.32
48530;BME280;34927;37.302;-121.982;2022-10-16T01:51:28;100516.0;;;25.05;43.32
48530;BME280;34927;37.302;-121.982;2022-10-16T01:52:33;100518.0;;;25.07;43.25
48530;BME280;34927;37.302;-121.982;2022-10-16T01:53:44;100518.0;;;25.03;43.37
48530;BME280;34927;37.302;-121.982;2022-10-16T01:54:53;100519.0;;;25.05;43.28
48530;BME280;34927;37.302;-121.982;2022-10-16T01:55:58;100519.0;;;25.03;43.33
48530;BME280;34927;37.302;-121.982;2022-10-16T01:57:02;100522.0;;;25.00;43.42
48530;BME280;34927;37.302;-121.982;2022-10-16T01:58:08;100520.0;;;24.95;43.56
48530;BME280;34927;37.302;-121.982;2022-10-16T01:59:13;100524.0;;;25.00;43.43
48530;BME280;34927;37.302;-121.982;2022-10-16T02:00:18;100526.0;;;25.01;43.46
48530;BME280;34927;37.302;-121.982;2022-10-16T02:01:28;100527.0;;;25.02;43.32
48530;BME280;34927;37.302;-121.982;2022-10-16T02:02:32;100526.0;;;25.00;43.38
48530;BME280;34927;37.302;-121.982;2022-10-16T02:03:38;100527.0;;;24.98;43.37
48530;BME280;34927;37.302;-121.982;2022-10-16T02:04:51;100528.0;;;25.01;43.37
48530;BME280;34927;37.302;-121.982;2022-10-16T02:05:58;100529.0;;;25.00;43.43
48530;BME280;34927;37.302;-121.982;2022-10-16T02:07:01;100528.0;;;24.96;43.44
48530;BME280;34927;37.302;-121.982;2022-10-16T02:08:07;100529.0;;;25.02;43.34
48530;BME280;34927;37.302;-121.982;2022-10-16T02:09:12;100529.0;;;24.98;43.43
48530;BME280;34927;37.302;-121.982;2022-10-16T02:10:16;100528.0;;;24.97;43.45
48530;BME280;34927;37.302;-121.982;2022-10-16T02:11:21;100526.0;;;24.93;43.49
48530;BME280;34927;37.302;-121.982;2022-10-16T02:12:29;100526.0;;;24.99;43.44
48530;BME280;34927;37.302;-121.982;2022-10-16T02:13:39;100527.0;;;24.92;43.42
48530;BME280;34927;37.302;-121.982;2022-10-16T02:14:46;100530.0;;;24.94;43.42
48530;BME280;34927;37.302;-121.982;2022-10-16T02:15:51;100530.0;;;24.96;43.41
48530;BME280;34927;37.302;-121.982;2022-10-16T02:16:56;100529.0;;;24.95;43.42
48530;BME280;34927;37.302;-121.982;2022-10-16T02:18:02;100529.0;;;24.92;43.43
48530;BME280;34927;37.302;-121.982;2022-10-16T02:19:07;100527.0;;;24.94;43.43
48530;BME280;34927;37.302;-121.982;2022-10-16T02:20:11;100529.0;;;24.90;43.47
48530;BME280;34927;37.302;-121.982;2022-10-16T02:21:21;100530.0;;;24.93;43.39
48530;BME280;34927;37.302;-121.982;2022-10-16T02:22:30;100530.0;;;24.91;43.43
48530;BME280;34927;37.302;-121.982;2022-10-16T02:23:42;100530.0;;;24.88;43.45
48530;BME280;34927;37.302;-121.982;2022-10-16T02:24:56;100529.0;;;24.90;43.45
48530;BME280;34927;37.302;-121.982;2022-10-16T02:26:04;100529.0;;;24.87;43.41
48530;BME280;34927;37.302;-121.982;2022-10-16T02:27:16;100532.0;;;24.89;43.44
48530;BME280;34927;37.302;-121.982;2022-10-16T02:28:26;100531.0;;;24.92;43.39
48530;BME280;34927;37.302;-121.982;2022-10-16T02:29:32;100533.0;;;24.88;43.43
48530;BME280;34927;37.302;-121.982;2022-10-16T02:30:44;100534.0;;;24.87;43.46
48530;BME280;34927;37.302;-121.982;2022-10-16T02:31:55;100534.0;;;24.84;43.53
48530;BME280;34927;37.302;-121.982;2022-10-16T02:33:03;100536.0;;;24.82;43.51
48530;BME280;34927;37.302;-121.982;2022-10-16T02:34:07;100536.0;;;24.82;43.49
48530;BME280;34927;37.302;-121.982;2022-10-16T02:35:12;100539.0;;;24.83;43.43
48530;BME280;34927;37.302;-121.982;2022-10-16T02:36:17;100543.0;;;24.86;43.49
48530;BME280;34927;37.302;-121.982;2022-10-16T02:37:22;100544.0;;;24.84;43.42
48530;BME280;34927;37.302;-121.982;2022-10-16T02:38:27;100544.0;;;24.85;43.41
48530;BME280;34927;37.302;-121.982;2022-10-16T02:39:32;100547.0;;;24.84;43.38
48530;BME280;34927;37.302;-121.982;2022-10-16T02:40:37;100548.0;;;24.85;43.40
48530;BME280;34927;37.302;-121.982;2022-10-16T02:41:41;100552.0;;;24.82;43.48
48530;BME280;34927;37.302;-121.982;2022-10-16T02:42:50;100552.0;;;24.82;43.42
48530;BME280;34927;37.302;-121.982;2022-10-16T02:43:56;100550.0;;;24.86;43.36
48530;BME280;34927;37.302;-121.982;2022-10-16T02:45:02;100551.0;;;24.84;43.38
48530;BME280;34927;37.302;-121.982;2022-10-16T02:46:07;100553.0;;;24.79;43.39
48530;BME280;34927;37.302;-121.982;2022-10-16T02:47:13;100550.0;;;24.82;43.41
48530;BME280;34927;37.302;-121.982;2022-10-16T02:48:16;100552.0;;;24.78;43.45
48530;BME280;34927;37.302;-121.982;2022-10-16T02:49:21;100550.0;;;24.76;43.47
48530;BME280;34927;37.302;-121.982;2022-10-16T02:50:26;100551.0;;;24.80;43.45
48530;BME280;34927;37.302;-121.982;2022-10-16T02:51:31;100550.0;;;24.71;43.63
48530;BME280;34927;37.302;-121.982;2022-10-16T02:52:36;100552.0;;;24.71;43.61
48530;BME280;34927;37.302;-121.982;2022-10-16T02:53:41;100555.0;;;24.66;43.67
48530;BME280;34927;37.302;-121.982;2022-10-16T02:54:46;100556.0;;;24.73;43.57
48530;BME280;34927;37.302;-121.982;2022-10-16T02:55:51;100557.0;;;24.67;43.69
48530;BME280;34927;37.302;-121.982;2022-10-16T02:56:56;100556.0;;;24.69;43.58
48530;BME280;34927;37.302;-121.982;2022-10-16T02:58:02;100556.0;;;24.72;43.59
48530;BME280;34927;37.302;-121.982;2022-10-16T02:59:06;100557.0;;;24.71;43.56
48530;BME280;34927;37.302;-121.982;2022-10-16T03:00:14;100558.0;;;24.82;43.32
48530;BME280;34927;37.302;-121.982;2022-10-16T03:01:17;100558.0;;;24.75;43.46
48530;BME280;34927;37.302;-121.982;2022-10-16T03:02:22;100559.0;;;24.74;43.43
48530;BME280;34927;37.302;-121.982;2022-10-16T03:03:26;100557.0;;;24.75;43.45
48530;BME280;34927;37.302;-121.982;2022-10-16T03:04:31;100559.0;;;24.75;43.52
48530;BME280;34927;37.302;-121.982;2022-10-16T03:05:37;100559.0;;;24.71;43.51
48530;BME280;34927;37.302;-121.982;2022-10-16T03:06:42;100558.0;;;24.70;43.58
48530;BME280;34927;37.302;-121.982;2022-10-16T03:07:46;100558.0;;;24.68;43.60
48530;BME280;34927;37.302;-121.982;2022-10-16T03:08:51;100557.0;;;24.71;43.52
48530;BME280;34927;37.302;-121.982;2022-10-16T03:09:56;100557.0;;;24.68;43.59
48530;BME280;34927;37.302;-121.982;2022-10-16T03:11:01;100560.0;;;24.67;43.59
48530;BME280;34927;37.302;-121.982;2022-10-16T03:12:07;100562.0;;;24.66;43.55
48530;BME280;34927;37.302;-121.982;2022-10-16T03:13:11;100562.0;;;24.66;43.59
48530;BME280;34927;37.302;-121.982;2022-10-16T03:14:16;100561.0;;;24.65;43.55
48530;BME280;34927;37.302;-121.982;2022-10-16T03:15:22;100563.0;;;24.71;43.52
48530;BME280;34927;37.302;-121.982;2022-10-16T03:16:27;100563.0;;;24.64;43.54
48530;BME280;34927;37.302;-121.982;2022-10-16T03:17:32;100566.0;;;24.72;43.42
48530;BME280;34927;37.302;-121.982;2022-10-16T03:18:37;100568.0;;;24.63;43.57
48530;BME280;34927;37.302;-121.982;2022-10-16T03:19:42;100565.0;;;24.69;43.47
48530;BME280;34927;37.302;-121.982;2022-10-16T03:20:48;100566.0;;;24.65;43.59
48530;BME280;34927;37.302;-121.982;2022-10-16T03:21:52;100570.0;;;24.61;43.65
48530;BME280;34927;37.302;-121.982;2022-10-16T03:22:56;100571.0;;;24.64;43.57
48530;BME280;34927;37.302;-121.982;2022-10-16T03:24:01;100571.0;;;24.58;43.66
48530;BME280;34927;37.302;-121.982;2022-10-16T03:25:07;100573.0;;;24.61;43.65
48530;BME280;34927;37.302;-121.982;2022-10-16T03:26:11;100575.0;;;24.65;43.50
48530;BME280;34927;37.302;-121.982;2022-10-16T03:27:16;100577.0;;;24.62;43.49
48530;BME280;34927;37.302;-121.982;2022-10-16T03:28:21;100577.0;;;24.61;43.56
48530;BME280;34927;37.302;-121.982;2022-10-16T03:29:26;100575.0;;;24.65;43.52
48530;BME280;34927;37.302;-121.982;2022-10-16T03:30:32;100576.0;;;24.62;43.53
48530;BME280;34927;37.302;-121.982;2022-10-16T03:31:37;100575.0;;;24.59;43.58
48530;BME280;34927;37.302;-121.982;2022-10-16T03:32:41;100574.0;;;24.61;43.52
48530;BME280;34927;37.302;-121.982;2022-10-16T03:33:46;100574.0;;;24.57;43.66
48530;BME280;34927;37.302;-121.982;2022-10-16T03:34:51;100576.0;;;24.53;43.62
48530;BME280;34927;37.302;-121.982;2022-10-16T03:35:57;100576.0;;;24.58;43.49
48530;BME280;34927;37.302;-121.982;2022-10-16T03:37:02;100577.0;;;24.59;43.54
48530;BME280;34927;37.302;-121.982;2022-10-16T03:38:06;100577.0;;;24.54;43.63
48530;BME280;34927;37.302;-121.982;2022-10-16T03:39:11;100578.0;;;24.50;43.71
48530;BME280;34927;37.302;-121.982;2022-10-16T03:40:17;100579.0;;;24.49;43.72
48530;BME280;34927;37.302;-121.982;2022-10-16T03:41:21;100580.0;;;24.53;43.62
48530;BME280;34927;37.302;-121.982;2022-10-16T03:42:27;100584.0;;;24.49;43.70
48530;BME280;34927;37.302;-121.982;2022-10-16T03:43:32;100586.0;;;24.55;43.57
48530;BME280;34927;37.302;-121.982;2022-10-16T03:44:36;100586.0;;;24.53;43.63
48530;BME280;34927;37.302;-121.982;2022-10-16T03:45:42;100587.0;;;24.56;43.58
48530;BME280;34927;37.302;-121.982;2022-10-16T03:46:47;100587.0;;;24.52;43.63
48530;BME280;34927;37.302;-121.982;2022-10-16T03:47:52;100586.0;;;24.49;43.70
48530;BME280;34927;37.302;-121.982;2022-10-16T03:48:57;100587.0;;;24.47;43.69
48530;BME280;34927;37.302;-121.982;2022-10-16T03:50:02;100586.0;;;24.48;43.64
48530;BME280;34927;37.302;-121.982;2022-10-16T03:51:07;100591.0;;;24.54;43.50
48530;BME280;34927;37.302;-121.982;2022-10-16T03:52:11;100588.0;;;24.48;43.69
48530;BME280;34927;37.302;-121.982;2022-10-16T03:53:17;100589.0;;;24.49;43.61
48530;BME280;34927;37.302;-121.982;2022-10-16T03:54:22;100592.0;;;24.53;43.58
48530;BME280;34927;37.302;-121.982;2022-10-16T03:55:26;100593.0;;;24.48;43.60
48530;BME280;34927;37.302;-121.982;2022-10-16T03:56:31;100593.0;;;24.46;43.64
48530;BME280;34927;37.302;-121.982;2022-10-16T03:57:36;100593.0;;;24.49;43.58
48530;BME280;34927;37.302;-121.982;2022-10-16T03:58:41;100594.0;;;24.50;43.57
48530;BME280;34927;37.302;-121.982;2022-10-16T03:59:46;100594.0;;;24.46;43.59
48530;BME280;34927;37.302;-121.982;2022-10-16T04:00:52;100595.0;;;24.42;43.67
48530;BME280;34927;37.302;-121.982;2022-10-16T04:01:57;100597.0;;;24.42;43.73
48530;BME280;34927;37.302;-121.982;2022-10-16T04:03:01;100598.0;;;24.38;43.76
48530;BME280;34927;37.302;-121.982;2022-10-16T04:04:07;100599.0;;;24.39;43.72
48530;BME280;34927;37.302;-121.982;2022-10-16T04:05:11;100601.0;;;24.40;43.69
48530;BME280;34927;37.302;-121.982;2022-10-16T04:06:17;100598.0;;;24.40;43.69
48530;BME280;34927;37.302;-121.982;2022-10-16T04:07:21;100600.0;;;24.45;43.60
48530;BME280;34927;37.302;-121.982;2022-10-16T04:08:26;100600.0;;;24.44;43.66
48530;BME280;34927;37.302;-121.982;2022-10-16T04:09:31;100599.0;;;24.44;43.64
48530;BME280;34927;37.302;-121.982;2022-10-16T04:10:37;100603.0;;;24.37;43.72
48530;BME280;34927;37.302;-121.982;2022-10-16T04:11:41;100603.0;;;24.20;44.11
48530;BME280;34927;37.302;-121.982;2022-10-16T04:12:46;100607.0;;;24.33;43.81
48530;BME280;34927;37.302;-121.982;2022-10-16T04:13:51;100606.0;;;24.37;43.71
48530;BME280;34927;37.302;-121.982;2022-10-16T04:14:56;100607.0;;;24.30;43.78
48530;BME280;34927;37.302;-121.982;2022-10-16T04:16:02;100613.0;;;24.34;43.80
48530;BME280;34927;37.302;-121.982;2022-10-16T04:17:06;100613.0;;;24.28;43.97
48530;BME280;34927;37.302;-121.982;2022-10-16T04:18:12;100614.0;;;24.29;43.89
48530;BME280;34927;37.302;-121.982;2022-10-16T04:19:16;100613.0;;;24.38;43.70
48530;BME280;34927;37.302;-121.982;2022-10-16T04:20:22;100613.0;;;24.40;43.66
48530;BME280;34927;37.302;-121.982;2022-10-16T04:21:26;100611.0;;;24.39;43.67
48530;BME280;34927;37.302;-121.982;2022-10-16T04:22:31;100610.0;;;24.35;43.80
48530;BME280;34927;37.302;-121.982;2022-10-16T04:23:37;100610.0;;;24.28;43.93
48530;BME280;34927;37.302;-121.982;2022-10-16T04:24:41;100611.0;;;24.28;43.85
48530;BME280;34927;37.302;-121.982;2022-10-16T04:25:46;100609.0;;;24.26;43.84
48530;BME280;34927;37.302;-121.982;2022-10-16T04:26:51;100609.0;;;24.32;43.78
48530;BME280;34927;37.302;-121.982;2022-10-16T04:27:57;100609.0;;;24.29;43.85
48530;BME280;34927;37.302;-121.982;2022-10-16T04:29:02;100608.0;;;24.26;43.83
48530;BME280;34927;37.302;-121.982;2022-10-16T04:30:07;100607.0;;;24.28;43.91
48530;BME280;34927;37.302;-121.982;2022-10-16T04:31:12;100611.0;;;24.40;43.73
48530;BME280;34927;37.302;-121.982;2022-10-16T04:32:16;100609.0;;;24.27;43.85
48530;BME280;34927;37.302;-121.982;2022-10-16T04:33:21;100611.0;;;24.28;43.87
48530;BME280;34927;37.302;-121.982;2022-10-16T04:34:27;100610.0;;;24.34;43.77
48530;BME280;34927;37.302;-121.982;2022-10-16T04:35:31;100611.0;;;24.31;43.74
48530;BME280;34927;37.302;-121.982;2022-10-16T04:36:36;100611.0;;;24.23;43.93
48530;BME280;34927;37.302;-121.982;2022-10-16T04:37:42;100612.0;;;24.20;43.99
48530;BME280;34927;37.302;-121.982;2022-10-16T04:38:46;100615.0;;;24.25;43.91
48530;BME280;34927;37.302;-121.982;2022-10-16T04:39:52;100616.0;;;24.23;43.92
48530;BME280;34927;37.302;-121.982;2022-10-16T04:40:56;100621.0;;;24.29;43.86
48530;BME280;34927;37.302;-121.982;2022-10-16T04:42:01;100620.0;;;24.35;43.76
48530;BME280;34927;37.302;-121.982;2022-10-16T04:43:06;100623.0;;;24.34;43.73
48530;BME280;34927;37.302;-121.982;2022-10-16T04:44:12;100625.0;;;24.26;43.86
48530;BME280;34927;37.302;-121.982;2022-10-16T04:45:16;100627.0;;;24.24;43.88
48530;BME280;34927;37.302;-121.982;2022-10-16T04:46:22;100629.0;;;24.23;43.91
48530;BME280;34927;37.302;-121.982;2022-10-16T04:47:27;100632.0;;;24.23;43.97
48530;BME280;34927;37.302;-121.982;2022-10-16T04:48:31;100634.0;;;24.26;43.92
48530;BME280;34927;37.302;-121.982;2022-10-16T04:49:37;100635.0;;;24.26;43.90
48530;BME280;34927;37.302;-121.982;2022-10-16T04:50:42;100636.0;;;24.20;43.98
48530;BME280;34927;37.302;-121.982;2022-10-16T04:51:46;100634.0;;;24.22;43.90
48530;BME280;34927;37.302;-121.982;2022-10-16T04:52:51;100633.0;;;24.22;43.94
48530;BME280;34927;37.302;-121.982;2022-10-16T04:53:57;100633.0;;;24.21;43.97
48530;BME280;34927;37.302;-121.982;2022-10-16T04:55:01;100634.0;;;24.20;43.95
48530;BME280;34927;37.302;-121.982;2022-10-16T04:56:06;100635.0;;;24.22;43.94
48530;BME280;34927;37.302;-121.982;2022-10-16T04:57:12;100639.0;;;24.23;43.94
48530;BME280;34927;37.302;-121.982;2022-10-16T04:58:16;100639.0;;;24.19;43.97
48530;BME280;34927;37.302;-121.982;2022-10-16T04:59:22;100640.0;;;24.20;43.96
48530;BME280;34927;37.302;-121.982;2022-10-16T05:00:27;100641.0;;;24.16;44.00
48530;BME280;34927;37.302;-121.982;2022-10-16T05:01:31;100641.0;;;24.21;43.94
48530;BME280;34927;37.302;-121.982;2022-10-16T05:02:36;100642.0;;;24.18;43.96
48530;BME280;34927;37.302;-121.982;2022-10-16T05:03:42;100643.0;;;24.20;43.98
48530;BME280;34927;37.302;-121.982;2022-10-16T05:04:47;100646.0;;;24.16;44.02
48530;BME280;34927;37.302;-121.982;2022-10-16T05:05:52;100647.0;;;24.09;44.17
48530;BME280;34927;37.302;-121.982;2022-10-16T05:06:56;100648.0;;;24.16;44.04
48530;BME280;34927;37.302;-121.982;2022-10-16T05:08:01;100648.0;;;24.18;43.95
48530;BME280;34927;37.302;-121.982;2022-10-16T05:09:07;100647.0;;;24.14;44.06
48530;BME280;34927;37.302;-121.982;2022-10-16T05:10:11;100647.0;;;24.22;43.94
48530;BME280;34927;37.302;-121.982;2022-10-16T05:11:16;100649.0;;;24.16;43.98
48530;BME280;34927;37.302;-121.982;2022-10-16T05:12:22;100649.0;;;24.11;44.06
48530;BME280;34927;37.302;-121.982;2022-10-16T05:13:27;100652.0;;;24.18;43.97
48530;BME280;34927;37.302;-121.982;2022-10-16T05:14:31;100653.0;;;24.14;43.99
48530;BME280;34927;37.302;-121.982;2022-10-16T05:15:37;100653.0;;;24.13;44.03
48530;BME280;34927;37.302;-121.982;2022-10-16T05:16:42;100652.0;;;24.11;44.06
48530;BME280;34927;37.302;-121.982;2022-10-16T05:17:46;100652.0;;;24.10;44.05
48530;BME280;34927;37.302;-121.982;2022-10-16T05:18:52;100650.0;;;24.16;43.94
48530;BME280;34927;37.302;-121.982;2022-10-16T05:19:57;100651.0;;;24.23;43.82
48530;BME280;34927;37.302;-121.982;2022-10-16T05:21:02;100653.0;;;24.19;43.92
48530;BME280;34927;37.302;-121.982;2022-10-16T05:22:06;100651.0;;;24.44;43.70
48530;BME280;34927;37.302;-121.982;2022-10-16T05:23:11;100657.0;;;24.29;44.01
48530;BME280;34927;37.302;-121.982;2022-10-16T05:24:17;100655.0;;;24.04;44.72
48530;BME280;34927;37.302;-121.982;2022-10-16T05:25:21;100657.0;;;23.94;45.08
48530;BME280;34927;37.302;-121.982;2022-10-16T05:26:27;100658.0;;;23.99;44.96
48530;BME280;34927;37.302;-121.982;2022-10-16T05:27:31;100660.0;;;23.85;45.19
48530;BME280;34927;37.302;-121.982;2022-10-16T05:28:37;100662.0;;;23.77;45.47
48530;BME280;34927;37.302;-121.982;2022-10-16T05:29:42;100661.0;;;23.79;45.67
48530;BME280;34927;37.302;-121.982;2022-10-16T05:30:47;100661.0;;;23.80;45.63
48530;BME280;34927;37.302;-121.982;2022-10-16T05:31:52;100662.0;;;23.78;45.65
48530;BME280;34927;37.302;-121.982;2022-10-16T05:32:56;100661.0;;;23.74;45.79
48530;BME280;34927;37.302;-121.982;2022-10-16T05:34:02;100657.0;;;23.75;45.73
48530;BME280;34927;37.302;-121.982;2022-10-16T05:35:07;100655.0;;;23.79;45.66
48530;BME280;34927;37.302;-121.982;2022-10-16T05:36:12;100656.0;;;23.85;45.61